sensor_id;sensor_type;location;lat;lon;timestamp;temperature;humidity
23311;DHT22;11828;51.508;18.118;2022-07-23T00:00:33;38.50;29.10
23311;DHT22;11828;51.508;18.118;2022-07-23T00:03:03;38.50;29.60
23311;DHT22;11828;51.508;18.118;2022-07-23T00:05:29;38.50;29.10
23311;DHT22;11828;51.508;18.118;2022-07-23T00:07:55;38.50;29.10
23311;DHT22;11828;51.508;18.118;2022-07-23T00:10:21;38.40;29.00
23311;DHT22;11828;51.508;18.118;2022-07-23T00:12:47;38.40;29.10
23311;DHT22;11828;51.508;18.118;2022-07-23T00:15:13;38.30;29.20
23311;DHT22;11828;51.508;18.118;2022-07-23T00:17:39;38.30;29.20
23311;DHT22;11828;51.508;18.118;2022-07-23T00:20:06;38.20;29.20
23311;DHT22;11828;51.508;18.118;2022-07-23T00:22:33;38.20;29.30
23311;DHT22;11828;51.508;18.118;2022-07-23T00:24:59;38.10;29.30
23311;DHT22;11828;51.508;18.118;2022-07-23T00:27:25;38.10;29.40
23311;DHT22;11828;51.508;18.118;2022-07-23T00:29:51;38.10;29.50
23311;DHT22;11828;51.508;18.118;2022-07-23T00:32:17;38.10;29.50
23311;DHT22;11828;51.508;18.118;2022-07-23T00:34:43;38.00;29.60
23311;DHT22;11828;51.508;18.118;2022-07-23T00:37:09;37.90;29.60
23311;DHT22;11828;51.508;18.118;2022-07-23T00:39:35;37.90;29.70
23311;DHT22;11828;51.508;18.118;2022-07-23T00:42:01;37.90;29.70
23311;DHT22;11828;51.508;18.118;2022-07-23T00:44:28;37.90;29.70
23311;DHT22;11828;51.508;18.118;2022-07-23T00:46:56;37.80;29.70
23311;DHT22;11828;51.508;18.118;2022-07-23T00:49:28;37.80;29.80
23311;DHT22;11828;51.508;18.118;2022-07-23T00:51:56;37.80;29.80
23311;DHT22;11828;51.508;18.118;2022-07-23T00:54:24;37.80;29.80
23311;DHT22;11828;51.508;18.118;2022-07-23T00:56:51;37.70;29.80
23311;DHT22;11828;51.508;18.118;2022-07-23T00:59:18;37.70;29.80
23311;DHT22;11828;51.508;18.118;2022-07-23T01:01:44;37.70;29.80
23311;DHT22;11828;51.508;18.118;2022-07-23T01:04:10;37.70;29.90
23311;DHT22;11828;51.508;18.118;2022-07-23T01:06:38;37.70;30.30
23311;DHT22;11828;51.508;18.118;2022-07-23T01:09:05;37.60;29.70
23311;DHT22;11828;51.508;18.118;2022-07-23T01:11:34;37.60;29.80
23311;DHT22;11828;51.508;18.118;2022-07-23T01:14:16;37.60;29.70
23311;DHT22;11828;51.508;18.118;2022-07-23T01:16:45;37.60;29.80
23311;DHT22;11828;51.508;18.118;2022-07-23T01:19:12;37.60;29.80
23311;DHT22;11828;51.508;18.118;2022-07-23T01:21:41;37.60;29.90
23311;DHT22;11828;51.508;18.118;2022-07-23T01:24:09;37.60;29.90
23311;DHT22;11828;51.508;18.118;2022-07-23T01:26:38;37.50;29.90
23311;DHT22;11828;51.508;18.118;2022-07-23T01:29:04;37.50;29.90
23311;DHT22;11828;51.508;18.118;2022-07-23T01:31:31;37.50;30.00
23311;DHT22;11828;51.508;18.118;2022-07-23T01:33:57;37.40;29.90
23311;DHT22;11828;51.508;18.118;2022-07-23T01:36:23;37.40;29.90
23311;DHT22;11828;51.508;18.118;2022-07-23T01:38:50;37.40;29.90
23311;DHT22;11828;51.508;18.118;2022-07-23T01:41:16;37.40;30.00
23311;DHT22;11828;51.508;18.118;2022-07-23T01:43:42;37.40;30.60
23311;DHT22;11828;51.508;18.118;2022-07-23T01:46:09;37.30;30.00
23311;DHT22;11828;51.508;18.118;2022-07-23T01:48:35;37.30;30.00
23311;DHT22;11828;51.508;18.118;2022-07-23T01:51:02;37.30;30.00
23311;DHT22;11828;51.508;18.118;2022-07-23T01:53:28;37.30;30.00
23311;DHT22;11828;51.508;18.118;2022-07-23T01:56:00;37.30;30.00
23311;DHT22;11828;51.508;18.118;2022-07-23T01:58:27;37.20;30.00
23311;DHT22;11828;51.508;18.118;2022-07-23T02:00:54;37.20;30.00
23311;DHT22;11828;51.508;18.118;2022-07-23T02:03:21;37.20;30.10
23311;DHT22;11828;51.508;18.118;2022-07-23T02:05:47;37.20;30.10
23311;DHT22;11828;51.508;18.118;2022-07-23T02:08:14;37.20;30.20
23311;DHT22;11828;51.508;18.118;2022-07-23T02:10:40;37.10;30.80
23311;DHT22;11828;51.508;18.118;2022-07-23T02:13:06;37.20;30.20
23311;DHT22;11828;51.508;18.118;2022-07-23T02:15:33;37.10;30.10
23311;DHT22;11828;51.508;18.118;2022-07-23T02:17:59;37.10;30.10
23311;DHT22;11828;51.508;18.118;2022-07-23T02:20:26;37.10;30.10
23311;DHT22;11828;51.508;18.118;2022-07-23T02:22:52;37.10;30.20
23311;DHT22;11828;51.508;18.118;2022-07-23T02:25:18;37.10;30.10
23311;DHT22;11828;51.508;18.118;2022-07-23T02:27:44;37.10;30.10
23311;DHT22;11828;51.508;18.118;2022-07-23T02:30:11;37.10;30.10
23311;DHT22;11828;51.508;18.118;2022-07-23T02:32:38;37.10;30.20
23311;DHT22;11828;51.508;18.118;2022-07-23T02:35:05;37.10;30.10
23311;DHT22;11828;51.508;18.118;2022-07-23T02:37:32;37.00;30.10
23311;DHT22;11828;51.508;18.118;2022-07-23T02:39:58;37.00;30.20
23311;DHT22;11828;51.508;18.118;2022-07-23T02:42:24;37.00;30.10
23311;DHT22;11828;51.508;18.118;2022-07-23T02:44:51;36.90;30.10
23311;DHT22;11828;51.508;18.118;2022-07-23T02:47:18;36.90;30.20
23311;DHT22;11828;51.508;18.118;2022-07-23T02:49:44;36.80;30.20
23311;DHT22;11828;51.508;18.118;2022-07-23T02:52:10;36.70;30.20
23311;DHT22;11828;51.508;18.118;2022-07-23T02:54:37;36.70;30.20
23311;DHT22;11828;51.508;18.118;2022-07-23T02:57:04;36.70;30.20
23311;DHT22;11828;51.508;18.118;2022-07-23T02:59:30;36.70;30.20
23311;DHT22;11828;51.508;18.118;2022-07-23T03:01:56;36.70;30.30
23311;DHT22;11828;51.508;18.118;2022-07-23T03:04:22;36.60;30.40
23311;DHT22;11828;51.508;18.118;2022-07-23T03:06:48;36.50;30.50
23311;DHT22;11828;51.508;18.118;2022-07-23T03:09:14;36.50;30.70
23311;DHT22;11828;51.508;18.118;2022-07-23T03:11:40;36.50;30.70
23311;DHT22;11828;51.508;18.118;2022-07-23T03:14:06;36.40;30.60
23311;DHT22;11828;51.508;18.118;2022-07-23T03:16:33;36.30;30.70
23311;DHT22;11828;51.508;18.118;2022-07-23T03:18:59;36.30;31.00
23311;DHT22;11828;51.508;18.118;2022-07-23T03:21:25;36.30;31.10
23311;DHT22;11828;51.508;18.118;2022-07-23T03:23:51;36.30;31.20
23311;DHT22;11828;51.508;18.118;2022-07-23T03:26:17;36.40;31.20
23311;DHT22;11828;51.508;18.118;2022-07-23T03:28:43;36.40;31.10
23311;DHT22;11828;51.508;18.118;2022-07-23T03:31:09;36.40;31.10
23311;DHT22;11828;51.508;18.118;2022-07-23T03:33:35;36.40;31.10
23311;DHT22;11828;51.508;18.118;2022-07-23T03:36:01;36.40;31.10
23311;DHT22;11828;51.508;18.118;2022-07-23T03:38:27;36.30;31.10
23311;DHT22;11828;51.508;18.118;2022-07-23T03:40:53;36.30;31.20
23311;DHT22;11828;51.508;18.118;2022-07-23T03:43:19;36.30;31.30
23311;DHT22;11828;51.508;18.118;2022-07-23T03:45:45;36.30;31.40
23311;DHT22;11828;51.508;18.118;2022-07-23T03:48:11;36.30;31.40
23311;DHT22;11828;51.508;18.118;2022-07-23T03:50:37;36.30;31.40
23311;DHT22;11828;51.508;18.118;2022-07-23T03:53:03;36.40;31.40
23311;DHT22;11828;51.508;18.118;2022-07-23T03:55:29;36.50;31.40
23311;DHT22;11828;51.508;18.118;2022-07-23T03:57:55;36.50;31.20
23311;DHT22;11828;51.508;18.118;2022-07-23T04:00:22;36.60;31.20
23311;DHT22;11828;51.508;18.118;2022-07-23T04:02:47;36.70;31.30
23311;DHT22;11828;51.508;18.118;2022-07-23T04:05:13;36.80;31.20
23311;DHT22;11828;51.508;18.118;2022-07-23T04:07:40;36.90;30.90
23311;DHT22;11828;51.508;18.118;2022-07-23T04:10:06;37.00;30.90
23311;DHT22;11828;51.508;18.118;2022-07-23T04:12:32;37.10;31.50
23311;DHT22;11828;51.508;18.118;2022-07-23T04:14:58;37.30;30.80
23311;DHT22;11828;51.508;18.118;2022-07-23T04:17:24;37.30;30.50
23311;DHT22;11828;51.508;18.118;2022-07-23T04:19:51;37.30;30.40
23311;DHT22;11828;51.508;18.118;2022-07-23T04:22:17;37.40;30.40
23311;DHT22;11828;51.508;18.118;2022-07-23T04:24:43;37.50;30.30
23311;DHT22;11828;51.508;18.118;2022-07-23T04:27:09;37.50;30.10
23311;DHT22;11828;51.508;18.118;2022-07-23T04:29:35;37.50;30.30
23311;DHT22;11828;51.508;18.118;2022-07-23T04:32:01;37.50;30.30
23311;DHT22;11828;51.508;18.118;2022-07-23T04:34:27;37.60;30.40
23311;DHT22;11828;51.508;18.118;2022-07-23T04:36:53;37.60;30.20
23311;DHT22;11828;51.508;18.118;2022-07-23T04:39:19;37.70;30.20
23311;DHT22;11828;51.508;18.118;2022-07-23T04:41:46;37.70;30.50
23311;DHT22;11828;51.508;18.118;2022-07-23T04:44:12;37.70;30.20
23311;DHT22;11828;51.508;18.118;2022-07-23T04:46:38;37.80;30.50
23311;DHT22;11828;51.508;18.118;2022-07-23T04:49:04;37.90;30.50
23311;DHT22;11828;51.508;18.118;2022-07-23T04:51:30;37.90;30.50
23311;DHT22;11828;51.508;18.118;2022-07-23T04:53:56;38.00;30.40
23311;DHT22;11828;51.508;18.118;2022-07-23T04:56:22;38.10;30.50
23311;DHT22;11828;51.508;18.118;2022-07-23T04:58:48;38.10;30.40
23311;DHT22;11828;51.508;18.118;2022-07-23T05:01:14;38.20;30.40
23311;DHT22;11828;51.508;18.118;2022-07-23T05:03:40;38.30;30.40
23311;DHT22;11828;51.508;18.118;2022-07-23T05:06:06;38.40;30.20
23311;DHT22;11828;51.508;18.118;2022-07-23T05:08:32;38.60;30.00
23311;DHT22;11828;51.508;18.118;2022-07-23T05:10:58;38.70;30.00
23311;DHT22;11828;51.508;18.118;2022-07-23T05:13:25;38.60;29.50
23311;DHT22;11828;51.508;18.118;2022-07-23T05:15:51;38.50;29.70
23311;DHT22;11828;51.508;18.118;2022-07-23T05:18:17;38.40;29.90
23311;DHT22;11828;51.508;18.118;2022-07-23T05:20:43;38.20;30.10
23311;DHT22;11828;51.508;18.118;2022-07-23T05:23:09;37.80;30.50
23311;DHT22;11828;51.508;18.118;2022-07-23T05:25:36;37.70;30.90
23311;DHT22;11828;51.508;18.118;2022-07-23T05:28:02;37.70;31.00
23311;DHT22;11828;51.508;18.118;2022-07-23T05:30:28;37.90;31.30
23311;DHT22;11828;51.508;18.118;2022-07-23T05:32:54;38.10;31.20
23311;DHT22;11828;51.508;18.118;2022-07-23T05:35:20;38.30;30.90
23311;DHT22;11828;51.508;18.118;2022-07-23T05:37:47;38.40;30.70
23311;DHT22;11828;51.508;18.118;2022-07-23T05:40:13;38.50;30.60
23311;DHT22;11828;51.508;18.118;2022-07-23T05:42:40;38.70;30.70
23311;DHT22;11828;51.508;18.118;2022-07-23T05:45:08;38.80;30.80
23311;DHT22;11828;51.508;18.118;2022-07-23T05:47:42;39.00;30.40
23311;DHT22;11828;51.508;18.118;2022-07-23T05:50:10;38.90;30.20
23311;DHT22;11828;51.508;18.118;2022-07-23T05:52:38;38.90;30.30
23311;DHT22;11828;51.508;18.118;2022-07-23T05:55:04;39.00;30.50
23311;DHT22;11828;51.508;18.118;2022-07-23T05:57:31;39.10;30.20
23311;DHT22;11828;51.508;18.118;2022-07-23T05:59:57;39.10;30.30
23311;DHT22;11828;51.508;18.118;2022-07-23T06:02:23;39.20;30.40
23311;DHT22;11828;51.508;18.118;2022-07-23T06:04:50;39.30;30.30
23311;DHT22;11828;51.508;18.118;2022-07-23T06:07:15;39.50;30.10
23311;DHT22;11828;51.508;18.118;2022-07-23T06:09:41;39.60;30.00
23311;DHT22;11828;51.508;18.118;2022-07-23T06:12:08;39.70;29.90
23311;DHT22;11828;51.508;18.118;2022-07-23T06:14:34;39.70;29.80
23311;DHT22;11828;51.508;18.118;2022-07-23T06:17:00;39.90;29.70
23311;DHT22;11828;51.508;18.118;2022-07-23T06:19:26;40.10;29.70
23311;DHT22;11828;51.508;18.118;2022-07-23T06:21:52;40.10;29.40
23311;DHT22;11828;51.508;18.118;2022-07-23T06:24:18;40.20;29.30
23311;DHT22;11828;51.508;18.118;2022-07-23T06:26:44;40.50;29.20
23311;DHT22;11828;51.508;18.118;2022-07-23T06:29:10;40.80;29.20
23311;DHT22;11828;51.508;18.118;2022-07-23T06:31:36;41.00;28.80
23311;DHT22;11828;51.508;18.118;2022-07-23T06:34:02;41.20;28.60
23311;DHT22;11828;51.508;18.118;2022-07-23T06:36:28;41.50;28.60
23311;DHT22;11828;51.508;18.118;2022-07-23T06:38:54;41.70;28.30
23311;DHT22;11828;51.508;18.118;2022-07-23T06:41:21;41.90;28.10
23311;DHT22;11828;51.508;18.118;2022-07-23T06:43:48;42.00;27.90
23311;DHT22;11828;51.508;18.118;2022-07-23T06:46:14;42.10;27.80
23311;DHT22;11828;51.508;18.118;2022-07-23T06:48:40;42.20;27.70
23311;DHT22;11828;51.508;18.118;2022-07-23T06:51:07;42.30;27.50
23311;DHT22;11828;51.508;18.118;2022-07-23T06:53:33;42.40;27.40
23311;DHT22;11828;51.508;18.118;2022-07-23T06:55:59;42.50;27.30
23311;DHT22;11828;51.508;18.118;2022-07-23T06:58:25;42.60;27.30
23311;DHT22;11828;51.508;18.118;2022-07-23T07:00:51;42.70;27.20
23311;DHT22;11828;51.508;18.118;2022-07-23T07:03:18;43.00;27.10
23311;DHT22;11828;51.508;18.118;2022-07-23T07:05:44;43.40;26.80
23311;DHT22;11828;51.508;18.118;2022-07-23T07:08:11;44.00;26.30
23311;DHT22;11828;51.508;18.118;2022-07-23T07:10:37;44.60;25.80
23311;DHT22;11828;51.508;18.118;2022-07-23T07:13:03;45.10;25.40
23311;DHT22;11828;51.508;18.118;2022-07-23T07:15:29;45.70;25.10
23311;DHT22;11828;51.508;18.118;2022-07-23T07:17:55;46.10;24.40
23311;DHT22;11828;51.508;18.118;2022-07-23T07:20:21;46.40;24.20
23311;DHT22;11828;51.508;18.118;2022-07-23T07:22:47;46.90;24.00
23311;DHT22;11828;51.508;18.118;2022-07-23T07:25:13;47.40;23.70
23311;DHT22;11828;51.508;18.118;2022-07-23T07:27:40;48.00;23.50
23311;DHT22;11828;51.508;18.118;2022-07-23T07:30:06;48.50;23.10
23311;DHT22;11828;51.508;18.118;2022-07-23T07:32:33;48.90;22.50
23311;DHT22;11828;51.508;18.118;2022-07-23T07:37:26;49.50;21.50
23311;DHT22;11828;51.508;18.118;2022-07-23T07:39:52;49.50;21.60
23311;DHT22;11828;51.508;18.118;2022-07-23T07:42:18;49.70;21.50
23311;DHT22;11828;51.508;18.118;2022-07-23T07:44:44;49.50;21.50
23311;DHT22;11828;51.508;18.118;2022-07-23T07:47:10;49.60;21.30
23311;DHT22;11828;51.508;18.118;2022-07-23T07:49:36;49.70;20.60
23311;DHT22;11828;51.508;18.118;2022-07-23T07:52:03;49.70;20.60
23311;DHT22;11828;51.508;18.118;2022-07-23T07:54:29;49.50;20.90
23311;DHT22;11828;51.508;18.118;2022-07-23T07:56:55;49.70;20.90
23311;DHT22;11828;51.508;18.118;2022-07-23T07:59:21;49.80;20.70
23311;DHT22;11828;51.508;18.118;2022-07-23T08:01:47;50.00;20.60
23311;DHT22;11828;51.508;18.118;2022-07-23T08:06:42;50.80;20.10
23311;DHT22;11828;51.508;18.118;2022-07-23T08:09:08;51.30;20.00
23311;DHT22;11828;51.508;18.118;2022-07-23T08:11:34;51.60;19.90
23311;DHT22;11828;51.508;18.118;2022-07-23T08:14:00;51.80;19.70
23311;DHT22;11828;51.508;18.118;2022-07-23T08:16:26;51.80;19.20
23311;DHT22;11828;51.508;18.118;2022-07-23T08:18:52;52.10;31.20
23311;DHT22;11828;51.508;18.118;2022-07-23T08:21:18;52.30;19.20
23311;DHT22;11828;51.508;18.118;2022-07-23T08:23:45;52.30;19.10
23311;DHT22;11828;51.508;18.118;2022-07-23T08:26:11;52.60;19.20
23311;DHT22;11828;51.508;18.118;2022-07-23T08:28:37;52.60;18.90
23311;DHT22;11828;51.508;18.118;2022-07-23T08:31:03;52.70;18.60
23311;DHT22;11828;51.508;18.118;2022-07-23T08:33:31;52.60;18.90
23311;DHT22;11828;51.508;18.118;2022-07-23T08:35:58;52.60;18.70
23311;DHT22;11828;51.508;18.118;2022-07-23T08:38:24;52.90;24.90
23311;DHT22;11828;51.508;18.118;2022-07-23T08:40:54;52.70;18.50
23311;DHT22;11828;51.508;18.118;2022-07-23T08:43:30;52.40;18.40
23311;DHT22;11828;51.508;18.118;2022-07-23T08:46:00;52.20;18.50
23311;DHT22;11828;51.508;18.118;2022-07-23T08:48:28;52.10;18.40
23311;DHT22;11828;51.508;18.118;2022-07-23T08:50:57;51.80;18.10
23311;DHT22;11828;51.508;18.118;2022-07-23T08:53:26;51.30;18.20
23311;DHT22;11828;51.508;18.118;2022-07-23T08:55:59;51.00;18.70
23311;DHT22;11828;51.508;18.118;2022-07-23T08:58:30;50.80;18.40
23311;DHT22;11828;51.508;18.118;2022-07-23T09:00:57;50.40;18.60
23311;DHT22;11828;51.508;18.118;2022-07-23T09:03:29;50.00;18.90
23311;DHT22;11828;51.508;18.118;2022-07-23T09:05:57;49.50;19.40
23311;DHT22;11828;51.508;18.118;2022-07-23T09:08:26;49.00;20.00
23311;DHT22;11828;51.508;18.118;2022-07-23T09:11:02;48.60;20.20
23311;DHT22;11828;51.508;18.118;2022-07-23T09:13:42;48.30;20.40
23311;DHT22;11828;51.508;18.118;2022-07-23T09:16:25;48.10;20.50
23311;DHT22;11828;51.508;18.118;2022-07-23T09:18:54;48.10;20.70
23311;DHT22;11828;51.508;18.118;2022-07-23T09:21:29;47.80;20.90
23311;DHT22;11828;51.508;18.118;2022-07-23T09:24:07;47.40;21.20
23311;DHT22;11828;51.508;18.118;2022-07-23T09:26:45;47.00;21.60
23311;DHT22;11828;51.508;18.118;2022-07-23T09:29:19;46.50;21.70
23311;DHT22;11828;51.508;18.118;2022-07-23T09:32:03;46.10;22.10
23311;DHT22;11828;51.508;18.118;2022-07-23T09:34:34;45.80;22.60
23311;DHT22;11828;51.508;18.118;2022-07-23T09:37:11;45.60;22.60
23311;DHT22;11828;51.508;18.118;2022-07-23T09:39:39;45.70;22.60
23311;DHT22;11828;51.508;18.118;2022-07-23T09:44:47;46.20;22.20
23311;DHT22;11828;51.508;18.118;2022-07-23T09:47:14;46.80;21.70
23311;DHT22;11828;51.508;18.118;2022-07-23T09:50:14;47.10;21.20
23311;DHT22;11828;51.508;18.118;2022-07-23T09:52:48;47.10;21.20
23311;DHT22;11828;51.508;18.118;2022-07-23T09:55:16;47.20;21.40
23311;DHT22;11828;51.508;18.118;2022-07-23T09:57:44;47.00;21.00
23311;DHT22;11828;51.508;18.118;2022-07-23T10:00:13;47.00;21.40
23311;DHT22;11828;51.508;18.118;2022-07-23T10:02:40;47.00;21.30
23311;DHT22;11828;51.508;18.118;2022-07-23T10:05:07;46.90;21.40
23311;DHT22;11828;51.508;18.118;2022-07-23T10:07:39;46.90;21.40
23311;DHT22;11828;51.508;18.118;2022-07-23T10:10:06;47.00;21.40
23311;DHT22;11828;51.508;18.118;2022-07-23T10:12:33;47.10;21.20
23311;DHT22;11828;51.508;18.118;2022-07-23T10:15:17;47.10;21.30
23311;DHT22;11828;51.508;18.118;2022-07-23T10:17:43;47.00;21.20
23311;DHT22;11828;51.508;18.118;2022-07-23T10:20:09;47.00;21.10
23311;DHT22;11828;51.508;18.118;2022-07-23T10:22:42;47.20;20.80
23311;DHT22;11828;51.508;18.118;2022-07-23T10:30:52;47.00;21.00
23311;DHT22;11828;51.508;18.118;2022-07-23T10:36:49;47.40;21.50
23311;DHT22;11828;51.508;18.118;2022-07-23T10:42:11;47.30;21.30
23311;DHT22;11828;51.508;18.118;2022-07-23T10:44:48;47.30;21.10
23311;DHT22;11828;51.508;18.118;2022-07-23T10:47:30;47.20;21.60
23311;DHT22;11828;51.508;18.118;2022-07-23T10:50:25;47.20;21.50
23311;DHT22;11828;51.508;18.118;2022-07-23T10:57:58;47.50;20.90
23311;DHT22;11828;51.508;18.118;2022-07-23T11:00:26;47.40;20.10
23311;DHT22;11828;51.508;18.118;2022-07-23T11:02:56;47.20;19.30
23311;DHT22;11828;51.508;18.118;2022-07-23T11:05:26;47.10;19.30
23311;DHT22;11828;51.508;18.118;2022-07-23T11:24:01;45.50;22.90
23311;DHT22;11828;51.508;18.118;2022-07-23T11:31:56;44.70;23.50
23311;DHT22;11828;51.508;18.118;2022-07-23T11:37:11;44.10;23.60
23311;DHT22;11828;51.508;18.118;2022-07-23T11:39:38;44.00;23.60
23311;DHT22;11828;51.508;18.118;2022-07-23T11:42:07;43.70;23.80
23311;DHT22;11828;51.508;18.118;2022-07-23T11:44:35;43.30;24.30
23311;DHT22;11828;51.508;18.118;2022-07-23T11:47:09;43.00;24.70
23311;DHT22;11828;51.508;18.118;2022-07-23T11:49:37;42.80;25.40
23311;DHT22;11828;51.508;18.118;2022-07-23T11:52:08;42.50;25.80
23311;DHT22;11828;51.508;18.118;2022-07-23T11:57:28;41.90;27.20
23311;DHT22;11828;51.508;18.118;2022-07-23T12:00:07;41.70;27.90
23311;DHT22;11828;51.508;18.118;2022-07-23T12:02:43;41.30;28.80
23311;DHT22;11828;51.508;18.118;2022-07-23T12:05:19;41.10;29.80
23311;DHT22;11828;51.508;18.118;2022-07-23T12:07:48;40.90;30.20
23311;DHT22;11828;51.508;18.118;2022-07-23T12:10:27;40.70;31.30
23311;DHT22;11828;51.508;18.118;2022-07-23T12:12:59;40.40;31.70
23311;DHT22;11828;51.508;18.118;2022-07-23T12:15:41;40.20;32.80
23311;DHT22;11828;51.508;18.118;2022-07-23T12:18:19;40.00;34.40
23311;DHT22;11828;51.508;18.118;2022-07-23T12:20:52;39.80;32.90
23311;DHT22;11828;51.508;18.118;2022-07-23T12:23:21;39.60;34.00
23311;DHT22;11828;51.508;18.118;2022-07-23T12:25:50;39.20;33.30
23311;DHT22;11828;51.508;18.118;2022-07-23T12:28:32;39.00;33.90
23311;DHT22;11828;51.508;18.118;2022-07-23T12:30:59;38.80;34.00
23311;DHT22;11828;51.508;18.118;2022-07-23T12:33:38;38.50;35.20
23311;DHT22;11828;51.508;18.118;2022-07-23T12:36:09;38.20;35.90
23311;DHT22;11828;51.508;18.118;2022-07-23T12:38:43;37.90;35.40
23311;DHT22;11828;51.508;18.118;2022-07-23T12:41:14;37.80;36.30
23311;DHT22;11828;51.508;18.118;2022-07-23T12:43:45;37.70;36.00
23311;DHT22;11828;51.508;18.118;2022-07-23T12:46:19;37.70;36.20
23311;DHT22;11828;51.508;18.118;2022-07-23T12:51:30;37.60;37.40
23311;DHT22;11828;51.508;18.118;2022-07-23T12:54:06;37.60;37.90
23311;DHT22;11828;51.508;18.118;2022-07-23T12:56:36;37.60;38.10
23311;DHT22;11828;51.508;18.118;2022-07-23T12:59:08;37.60;36.90
23311;DHT22;11828;51.508;18.118;2022-07-23T13:01:43;37.60;37.90
23311;DHT22;11828;51.508;18.118;2022-07-23T13:04:19;37.60;38.30
23311;DHT22;11828;51.508;18.118;2022-07-23T13:06:50;37.70;39.30
23311;DHT22;11828;51.508;18.118;2022-07-23T13:09:23;37.80;38.90
23311;DHT22;11828;51.508;18.118;2022-07-23T13:11:51;37.90;37.70
23311;DHT22;11828;51.508;18.118;2022-07-23T13:14:19;37.90;37.60
23311;DHT22;11828;51.508;18.118;2022-07-23T13:16:46;37.80;37.10
23311;DHT22;11828;51.508;18.118;2022-07-23T13:19:13;37.70;38.20
23311;DHT22;11828;51.508;18.118;2022-07-23T13:21:40;37.70;37.80
23311;DHT22;11828;51.508;18.118;2022-07-23T13:24:11;37.80;38.90
23311;DHT22;11828;51.508;18.118;2022-07-23T13:26:38;37.90;38.10
23311;DHT22;11828;51.508;18.118;2022-07-23T13:29:05;37.80;37.50
23311;DHT22;11828;51.508;18.118;2022-07-23T13:31:33;37.60;38.20
23311;DHT22;11828;51.508;18.118;2022-07-23T13:33:59;37.40;38.60
23311;DHT22;11828;51.508;18.118;2022-07-23T13:36:25;37.20;39.30
23311;DHT22;11828;51.508;18.118;2022-07-23T13:38:51;37.00;39.00
23311;DHT22;11828;51.508;18.118;2022-07-23T13:41:18;36.80;39.00
23311;DHT22;11828;51.508;18.118;2022-07-23T13:43:44;36.70;39.10
23311;DHT22;11828;51.508;18.118;2022-07-23T13:46:10;36.50;39.70
23311;DHT22;11828;51.508;18.118;2022-07-23T13:48:36;36.50;39.00
23311;DHT22;11828;51.508;18.118;2022-07-23T13:51:02;36.50;39.40
23311;DHT22;11828;51.508;18.118;2022-07-23T13:53:29;36.60;39.20
23311;DHT22;11828;51.508;18.118;2022-07-23T13:55:55;36.60;39.30
23311;DHT22;11828;51.508;18.118;2022-07-23T13:58:21;36.70;39.30
23311;DHT22;11828;51.508;18.118;2022-07-23T14:00:51;37.00;39.50
23311;DHT22;11828;51.508;18.118;2022-07-23T14:03:20;37.70;38.60
23311;DHT22;11828;51.508;18.118;2022-07-23T14:05:49;38.20;37.40
23311;DHT22;11828;51.508;18.118;2022-07-23T14:08:16;38.90;35.90
23311;DHT22;11828;51.508;18.118;2022-07-23T14:10:42;39.50;35.70
23311;DHT22;11828;51.508;18.118;2022-07-23T14:13:07;40.20;34.80
23311;DHT22;11828;51.508;18.118;2022-07-23T14:15:34;40.90;33.60
23311;DHT22;11828;51.508;18.118;2022-07-23T14:17:59;41.60;32.40
23311;DHT22;11828;51.508;18.118;2022-07-23T14:20:26;41.90;31.40
23311;DHT22;11828;51.508;18.118;2022-07-23T14:22:52;42.60;31.30
23311;DHT22;11828;51.508;18.118;2022-07-23T14:25:20;42.90;30.90
23311;DHT22;11828;51.508;18.118;2022-07-23T14:27:45;43.30;30.20
23311;DHT22;11828;51.508;18.118;2022-07-23T14:30:13;43.70;29.50
23311;DHT22;11828;51.508;18.118;2022-07-23T14:32:40;43.80;29.20
23311;DHT22;11828;51.508;18.118;2022-07-23T14:35:07;43.60;29.50
23311;DHT22;11828;51.508;18.118;2022-07-23T14:37:33;43.30;29.70
23311;DHT22;11828;51.508;18.118;2022-07-23T14:40:00;43.10;29.90
23311;DHT22;11828;51.508;18.118;2022-07-23T14:42:26;42.90;29.90
23311;DHT22;11828;51.508;18.118;2022-07-23T14:44:52;42.70;30.10
23311;DHT22;11828;51.508;18.118;2022-07-23T14:47:18;42.70;30.40
23311;DHT22;11828;51.508;18.118;2022-07-23T14:49:44;42.80;30.50
23311;DHT22;11828;51.508;18.118;2022-07-23T14:52:10;43.00;30.40
23311;DHT22;11828;51.508;18.118;2022-07-23T14:54:36;42.90;30.00
23311;DHT22;11828;51.508;18.118;2022-07-23T14:57:03;42.90;29.80
23311;DHT22;11828;51.508;18.118;2022-07-23T14:59:30;42.80;30.10
23311;DHT22;11828;51.508;18.118;2022-07-23T15:01:57;42.70;30.40
23311;DHT22;11828;51.508;18.118;2022-07-23T15:04:23;42.90;30.30
23311;DHT22;11828;51.508;18.118;2022-07-23T15:06:50;43.10;29.90
23311;DHT22;11828;51.508;18.118;2022-07-23T15:09:17;43.00;30.20
23311;DHT22;11828;51.508;18.118;2022-07-23T15:11:43;42.80;29.80
23311;DHT22;11828;51.508;18.118;2022-07-23T15:14:10;42.70;30.00
23311;DHT22;11828;51.508;18.118;2022-07-23T15:16:37;42.50;30.20
23311;DHT22;11828;51.508;18.118;2022-07-23T15:19:04;42.40;30.60
23311;DHT22;11828;51.508;18.118;2022-07-23T15:21:30;42.30;30.80
23311;DHT22;11828;51.508;18.118;2022-07-23T15:23:57;42.30;31.00
23311;DHT22;11828;51.508;18.118;2022-07-23T15:26:28;42.40;31.60
23311;DHT22;11828;51.508;18.118;2022-07-23T15:28:55;42.30;30.80
23311;DHT22;11828;51.508;18.118;2022-07-23T15:31:22;42.30;31.10
23311;DHT22;11828;51.508;18.118;2022-07-23T15:33:48;42.20;31.30
23311;DHT22;11828;51.508;18.118;2022-07-23T15:36:17;42.20;31.00
23311;DHT22;11828;51.508;18.118;2022-07-23T15:38:44;42.10;30.80
23311;DHT22;11828;51.508;18.118;2022-07-23T15:41:11;42.00;31.00
23311;DHT22;11828;51.508;18.118;2022-07-23T15:43:37;41.90;31.20
23311;DHT22;11828;51.508;18.118;2022-07-23T15:46:04;41.90;31.10
23311;DHT22;11828;51.508;18.118;2022-07-23T15:48:31;41.80;31.30
23311;DHT22;11828;51.508;18.118;2022-07-23T15:50:57;41.70;31.30
23311;DHT22;11828;51.508;18.118;2022-07-23T15:53:23;41.60;31.50
23311;DHT22;11828;51.508;18.118;2022-07-23T15:55:49;41.60;31.90
23311;DHT22;11828;51.508;18.118;2022-07-23T15:58:15;41.60;31.80
23311;DHT22;11828;51.508;18.118;2022-07-23T16:00:41;41.50;32.00
23311;DHT22;11828;51.508;18.118;2022-07-23T16:03:07;41.50;31.90
23311;DHT22;11828;51.508;18.118;2022-07-23T16:05:33;41.40;32.00
23311;DHT22;11828;51.508;18.118;2022-07-23T16:08:03;41.40;31.90
23311;DHT22;11828;51.508;18.118;2022-07-23T16:10:30;41.40;32.00
23311;DHT22;11828;51.508;18.118;2022-07-23T16:12:57;41.30;32.00